sensor_id;sensor_type;location;lat;lon;timestamp;P1;durP1;ratioP1;P2;durP2;ratioP2
71947;SDS011;63257;55.082;38.772;2024-03-25T00:01:34;53.13;;;19.25;;
71947;SDS011;63257;55.082;38.772;2024-03-25T00:04:00;48.80;;;19.20;;
71947;SDS011;63257;55.082;38.772;2024-03-25T00:06:25;50.53;;;18.70;;
71947;SDS011;63257;55.082;38.772;2024-03-25T00:08:52;51.38;;;19.40;;
71947;SDS011;63257;55.082;38.772;2024-03-25T00:11:17;50.53;;;18.98;;
71947;SDS011;63257;55.082;38.772;2024-03-25T00:13:43;49.85;;;18.92;;
71947;SDS011;63257;55.082;38.772;2024-03-25T00:16:09;51.30;;;19.45;;
71947;SDS011;63257;55.082;38.772;2024-03-25T00:18:35;52.25;;;19.23;;
71947;SDS011;63257;55.082;38.772;2024-03-25T00:21:01;53.90;;;18.80;;
71947;SDS011;63257;55.082;38.772;2024-03-25T00:23:27;46.97;;;18.15;;
71947;SDS011;63257;55.082;38.772;2024-03-25T00:25:53;50.70;;;19.45;;
71947;SDS011;63257;55.082;38.772;2024-03-25T00:28:19;53.00;;;19.33;;
71947;SDS011;63257;55.082;38.772;2024-03-25T00:30:45;53.50;;;18.33;;
71947;SDS011;63257;55.082;38.772;2024-03-25T00:33:11;54.08;;;19.63;;
71947;SDS011;63257;55.082;38.772;2024-03-25T00:35:37;52.43;;;19.23;;
71947;SDS011;63257;55.082;38.772;2024-03-25T00:38:03;52.85;;;19.90;;
71947;SDS011;63257;55.082;38.772;2024-03-25T00:40:30;55.38;;;18.95;;
71947;SDS011;63257;55.082;38.772;2024-03-25T00:42:56;53.33;;;17.77;;
71947;SDS011;63257;55.082;38.772;2024-03-25T00:45:22;50.88;;;18.75;;
71947;SDS011;63257;55.082;38.772;2024-03-25T00:47:51;52.45;;;18.48;;
71947;SDS011;63257;55.082;38.772;2024-03-25T00:50:17;53.17;;;18.97;;
71947;SDS011;63257;55.082;38.772;2024-03-25T00:52:43;49.65;;;18.58;;
71947;SDS011;63257;55.082;38.772;2024-03-25T00:55:08;56.03;;;19.30;;
71947;SDS011;63257;55.082;38.772;2024-03-25T00:57:35;49.15;;;18.33;;
71947;SDS011;63257;55.082;38.772;2024-03-25T01:00:00;51.90;;;18.35;;
71947;SDS011;63257;55.082;38.772;2024-03-25T01:02:26;55.45;;;19.13;;
71947;SDS011;63257;55.082;38.772;2024-03-25T01:04:53;50.63;;;18.75;;
71947;SDS011;63257;55.082;38.772;2024-03-25T01:07:20;50.87;;;19.03;;
71947;SDS011;63257;55.082;38.772;2024-03-25T01:09:46;51.10;;;17.45;;
71947;SDS011;63257;55.082;38.772;2024-03-25T01:12:12;55.33;;;20.00;;
71947;SDS011;63257;55.082;38.772;2024-03-25T01:14:37;49.55;;;18.52;;
71947;SDS011;63257;55.082;38.772;2024-03-25T01:17:03;49.13;;;16.57;;
71947;SDS011;63257;55.082;38.772;2024-03-25T01:19:29;46.28;;;16.70;;
71947;SDS011;63257;55.082;38.772;2024-03-25T01:21:55;49.95;;;17.52;;
71947;SDS011;63257;55.082;38.772;2024-03-25T01:24:21;45.93;;;16.83;;
71947;SDS011;63257;55.082;38.772;2024-03-25T01:26:47;52.00;;;17.83;;
71947;SDS011;63257;55.082;38.772;2024-03-25T01:29:13;46.88;;;17.70;;
71947;SDS011;63257;55.082;38.772;2024-03-25T01:31:39;45.37;;;17.20;;
71947;SDS011;63257;55.082;38.772;2024-03-25T01:34:05;42.85;;;16.77;;
71947;SDS011;63257;55.082;38.772;2024-03-25T01:36:31;40.80;;;16.40;;
71947;SDS011;63257;55.082;38.772;2024-03-25T01:38:57;41.35;;;15.57;;
71947;SDS011;63257;55.082;38.772;2024-03-25T01:41:23;42.42;;;16.20;;
71947;SDS011;63257;55.082;38.772;2024-03-25T01:43:49;39.55;;;15.23;;
71947;SDS011;63257;55.082;38.772;2024-03-25T01:46:18;34.80;;;14.68;;
71947;SDS011;63257;55.082;38.772;2024-03-25T01:48:47;35.88;;;14.13;;
71947;SDS011;63257;55.082;38.772;2024-03-25T01:51:14;37.40;;;15.27;;
71947;SDS011;63257;55.082;38.772;2024-03-25T01:53:42;35.55;;;14.07;;
71947;SDS011;63257;55.082;38.772;2024-03-25T01:56:08;37.22;;;13.80;;
71947;SDS011;63257;55.082;38.772;2024-03-25T01:58:36;27.57;;;11.53;;
71947;SDS011;63257;55.082;38.772;2024-03-25T02:01:03;26.70;;;10.05;;
71947;SDS011;63257;55.082;38.772;2024-03-25T02:03:29;17.30;;;7.10;;
71947;SDS011;63257;55.082;38.772;2024-03-25T02:06:02;11.00;;;5.68;;
71947;SDS011;63257;55.082;38.772;2024-03-25T02:08:32;11.55;;;5.10;;
71947;SDS011;63257;55.082;38.772;2024-03-25T02:10:59;9.07;;;4.20;;
71947;SDS011;63257;55.082;38.772;2024-03-25T02:13:25;11.13;;;4.55;;
71947;SDS011;63257;55.082;38.772;2024-03-25T02:15:51;7.07;;;3.00;;
71947;SDS011;63257;55.082;38.772;2024-03-25T02:18:18;11.85;;;3.70;;
71947;SDS011;63257;55.082;38.772;2024-03-25T02:20:44;7.00;;;2.95;;
71947;SDS011;63257;55.082;38.772;2024-03-25T02:23:11;7.88;;;3.67;;
71947;SDS011;63257;55.082;38.772;2024-03-25T02:25:38;7.28;;;3.00;;
71947;SDS011;63257;55.082;38.772;2024-03-25T02:28:06;6.57;;;2.92;;
71947;SDS011;63257;55.082;38.772;2024-03-25T02:30:32;6.30;;;2.50;;
71947;SDS011;63257;55.082;38.772;2024-03-25T02:32:58;5.30;;;2.22;;
71947;SDS011;63257;55.082;38.772;2024-03-25T02:35:25;7.65;;;2.88;;
71947;SDS011;63257;55.082;38.772;2024-03-25T02:37:52;6.53;;;2.30;;
71947;SDS011;63257;55.082;38.772;2024-03-25T02:40:19;5.47;;;2.20;;
71947;SDS011;63257;55.082;38.772;2024-03-25T02:42:46;4.47;;;2.10;;
71947;SDS011;63257;55.082;38.772;2024-03-25T02:45:12;4.20;;;1.73;;
71947;SDS011;63257;55.082;38.772;2024-03-25T02:47:38;4.35;;;1.75;;
71947;SDS011;63257;55.082;38.772;2024-03-25T02:50:04;4.65;;;1.83;;
71947;SDS011;63257;55.082;38.772;2024-03-25T02:52:31;4.10;;;1.63;;
71947;SDS011;63257;55.082;38.772;2024-03-25T02:54:56;3.65;;;1.40;;
71947;SDS011;63257;55.082;38.772;2024-03-25T02:57:23;6.93;;;2.88;;
71947;SDS011;63257;55.082;38.772;2024-03-25T02:59:49;4.00;;;1.57;;
71947;SDS011;63257;55.082;38.772;2024-03-25T03:02:15;5.47;;;2.63;;
71947;SDS011;63257;55.082;38.772;2024-03-25T03:04:41;4.23;;;1.77;;
71947;SDS011;63257;55.082;38.772;2024-03-25T03:07:08;4.00;;;1.70;;
71947;SDS011;63257;55.082;38.772;2024-03-25T03:09:33;4.57;;;1.70;;
71947;SDS011;63257;55.082;38.772;2024-03-25T03:11:59;4.43;;;1.67;;
71947;SDS011;63257;55.082;38.772;2024-03-25T03:14:25;2.88;;;1.00;;
71947;SDS011;63257;55.082;38.772;2024-03-25T03:16:51;6.13;;;1.87;;
71947;SDS011;63257;55.082;38.772;2024-03-25T03:19:26;4.45;;;1.40;;
71947;SDS011;63257;55.082;38.772;2024-03-25T03:21:53;3.75;;;1.23;;
71947;SDS011;63257;55.082;38.772;2024-03-25T03:24:19;3.60;;;1.60;;
71947;SDS011;63257;55.082;38.772;2024-03-25T03:26:45;2.95;;;1.05;;
71947;SDS011;63257;55.082;38.772;2024-03-25T03:29:11;2.85;;;1.15;;
71947;SDS011;63257;55.082;38.772;2024-03-25T03:31:37;3.00;;;1.10;;
71947;SDS011;63257;55.082;38.772;2024-03-25T03:34:03;3.58;;;1.20;;
71947;SDS011;63257;55.082;38.772;2024-03-25T03:36:29;2.80;;;0.90;;
71947;SDS011;63257;55.082;38.772;2024-03-25T03:38:55;6.80;;;3.20;;
71947;SDS011;63257;55.082;38.772;2024-03-25T03:41:21;4.03;;;1.73;;
71947;SDS011;63257;55.082;38.772;2024-03-25T03:43:46;3.47;;;1.33;;
71947;SDS011;63257;55.082;38.772;2024-03-25T03:46:12;3.42;;;1.10;;
71947;SDS011;63257;55.082;38.772;2024-03-25T03:48:38;3.60;;;1.20;;
71947;SDS011;63257;55.082;38.772;2024-03-25T03:51:04;4.20;;;1.20;;
71947;SDS011;63257;55.082;38.772;2024-03-25T03:53:31;2.83;;;1.08;;
71947;SDS011;63257;55.082;38.772;2024-03-25T03:55:59;3.73;;;1.20;;
71947;SDS011;63257;55.082;38.772;2024-03-25T03:58:27;3.53;;;1.38;;
71947;SDS011;63257;55.082;38.772;2024-03-25T04:00:54;3.03;;;1.25;;
71947;SDS011;63257;55.082;38.772;2024-03-25T04:03:20;3.20;;;1.30;;
71947;SDS011;63257;55.082;38.772;2024-03-25T04:05:47;3.45;;;1.30;;
71947;SDS011;63257;55.082;38.772;2024-03-25T04:08:13;3.55;;;1.27;;
71947;SDS011;63257;55.082;38.772;2024-03-25T04:10:39;2.97;;;1.10;;
71947;SDS011;63257;55.082;38.772;2024-03-25T04:13:06;2.78;;;0.95;;
71947;SDS011;63257;55.082;38.772;2024-03-25T04:15:37;2.92;;;1.00;;
71947;SDS011;63257;55.082;38.772;2024-03-25T04:18:04;3.00;;;1.10;;
71947;SDS011;63257;55.082;38.772;2024-03-25T04:20:35;113.15;;;48.38;;
71947;SDS011;63257;55.082;38.772;2024-03-25T04:23:02;4.55;;;1.73;;
71947;SDS011;63257;55.082;38.772;2024-03-25T04:25:28;3.00;;;1.30;;
71947;SDS011;63257;55.082;38.772;2024-03-25T04:27:54;3.10;;;1.17;;
71947;SDS011;63257;55.082;38.772;2024-03-25T04:30:20;3.88;;;1.20;;
71947;SDS011;63257;55.082;38.772;2024-03-25T04:32:46;3.40;;;1.27;;
71947;SDS011;63257;55.082;38.772;2024-03-25T04:35:12;3.10;;;1.10;;
71947;SDS011;63257;55.082;38.772;2024-03-25T04:37:38;2.90;;;1.10;;
71947;SDS011;63257;55.082;38.772;2024-03-25T04:40:03;3.05;;;1.00;;
71947;SDS011;63257;55.082;38.772;2024-03-25T04:42:32;2.85;;;1.10;;
71947;SDS011;63257;55.082;38.772;2024-03-25T04:44:58;2.60;;;0.83;;
71947;SDS011;63257;55.082;38.772;2024-03-25T04:47:24;2.90;;;1.20;;
71947;SDS011;63257;55.082;38.772;2024-03-25T04:49:49;2.80;;;1.17;;
71947;SDS011;63257;55.082;38.772;2024-03-25T04:52:15;3.30;;;1.00;;
71947;SDS011;63257;55.082;38.772;2024-03-25T04:54:48;3.97;;;1.00;;
71947;SDS011;63257;55.082;38.772;2024-03-25T04:57:14;3.00;;;0.98;;
71947;SDS011;63257;55.082;38.772;2024-03-25T04:59:40;3.28;;;0.90;;
71947;SDS011;63257;55.082;38.772;2024-03-25T05:02:06;2.90;;;0.80;;
71947;SDS011;63257;55.082;38.772;2024-03-25T05:04:32;2.70;;;0.83;;
71947;SDS011;63257;55.082;38.772;2024-03-25T05:06:58;3.13;;;1.00;;
71947;SDS011;63257;55.082;38.772;2024-03-25T05:09:23;3.10;;;1.00;;
71947;SDS011;63257;55.082;38.772;2024-03-25T05:11:50;3.08;;;0.90;;
71947;SDS011;63257;55.082;38.772;2024-03-25T05:14:15;2.70;;;0.98;;
71947;SDS011;63257;55.082;38.772;2024-03-25T05:16:41;3.20;;;1.20;;
71947;SDS011;63257;55.082;38.772;2024-03-25T05:19:07;2.97;;;1.10;;
71947;SDS011;63257;55.082;38.772;2024-03-25T05:21:33;3.30;;;1.40;;
71947;SDS011;63257;55.082;38.772;2024-03-25T05:23:59;3.70;;;1.20;;
71947;SDS011;63257;55.082;38.772;2024-03-25T05:26:25;5.00;;;1.10;;
71947;SDS011;63257;55.082;38.772;2024-03-25T05:28:55;2.90;;;1.00;;
71947;SDS011;63257;55.082;38.772;2024-03-25T05:31:21;3.67;;;1.30;;
71947;SDS011;63257;55.082;38.772;2024-03-25T05:33:47;2.58;;;0.85;;
71947;SDS011;63257;55.082;38.772;2024-03-25T05:36:13;3.03;;;1.13;;
71947;SDS011;63257;55.082;38.772;2024-03-25T05:38:39;3.50;;;1.10;;
71947;SDS011;63257;55.082;38.772;2024-03-25T05:41:05;4.63;;;1.40;;
71947;SDS011;63257;55.082;38.772;2024-03-25T05:43:31;3.00;;;1.23;;
71947;SDS011;63257;55.082;38.772;2024-03-25T05:45:57;5.30;;;1.60;;
71947;SDS011;63257;55.082;38.772;2024-03-25T05:48:26;4.43;;;1.70;;
71947;SDS011;63257;55.082;38.772;2024-03-25T05:50:59;3.65;;;1.30;;
71947;SDS011;63257;55.082;38.772;2024-03-25T05:53:28;3.92;;;1.80;;
71947;SDS011;63257;55.082;38.772;2024-03-25T05:55:55;3.80;;;1.50;;
71947;SDS011;63257;55.082;38.772;2024-03-25T05:58:21;3.80;;;1.40;;
71947;SDS011;63257;55.082;38.772;2024-03-25T06:00:50;3.85;;;1.60;;
71947;SDS011;63257;55.082;38.772;2024-03-25T06:03:17;4.53;;;1.77;;
71947;SDS011;63257;55.082;38.772;2024-03-25T06:05:43;3.80;;;1.02;;
71947;SDS011;63257;55.082;38.772;2024-03-25T06:08:09;2.80;;;1.10;;
71947;SDS011;63257;55.082;38.772;2024-03-25T06:10:44;3.45;;;1.40;;
71947;SDS011;63257;55.082;38.772;2024-03-25T06:13:10;3.53;;;1.33;;
71947;SDS011;63257;55.082;38.772;2024-03-25T06:15:36;3.00;;;1.20;;
71947;SDS011;63257;55.082;38.772;2024-03-25T06:18:02;4.20;;;1.23;;
71947;SDS011;63257;55.082;38.772;2024-03-25T06:20:28;3.45;;;1.40;;
71947;SDS011;63257;55.082;38.772;2024-03-25T06:22:54;3.35;;;1.30;;
71947;SDS011;63257;55.082;38.772;2024-03-25T06:25:19;3.20;;;1.30;;
71947;SDS011;63257;55.082;38.772;2024-03-25T06:27:45;3.50;;;1.40;;
71947;SDS011;63257;55.082;38.772;2024-03-25T06:30:13;3.47;;;1.40;;
71947;SDS011;63257;55.082;38.772;2024-03-25T06:32:58;3.17;;;1.33;;
71947;SDS011;63257;55.082;38.772;2024-03-25T06:35:42;4.15;;;1.42;;
71947;SDS011;63257;55.082;38.772;2024-03-25T06:38:09;3.60;;;1.50;;
71947;SDS011;63257;55.082;38.772;2024-03-25T06:40:37;3.53;;;1.57;;
71947;SDS011;63257;55.082;38.772;2024-03-25T06:43:03;2.90;;;1.20;;
71947;SDS011;63257;55.082;38.772;2024-03-25T06:45:29;4.80;;;1.73;;
71947;SDS011;63257;55.082;38.772;2024-03-25T06:47:55;3.60;;;1.60;;
71947;SDS011;63257;55.082;38.772;2024-03-25T06:50:23;3.22;;;1.50;;
71947;SDS011;63257;55.082;38.772;2024-03-25T06:52:50;4.55;;;1.90;;
71947;SDS011;63257;55.082;38.772;2024-03-25T06:55:16;3.25;;;1.48;;
71947;SDS011;63257;55.082;38.772;2024-03-25T06:57:44;3.97;;;1.50;;
71947;SDS011;63257;55.082;38.772;2024-03-25T07:00:10;3.85;;;1.50;;
71947;SDS011;63257;55.082;38.772;2024-03-25T07:02:39;4.78;;;1.70;;
71947;SDS011;63257;55.082;38.772;2024-03-25T07:05:05;4.13;;;1.67;;
71947;SDS011;63257;55.082;38.772;2024-03-25T07:07:32;3.70;;;1.70;;
71947;SDS011;63257;55.082;38.772;2024-03-25T07:09:59;3.30;;;1.30;;
71947;SDS011;63257;55.082;38.772;2024-03-25T07:12:25;3.80;;;1.70;;
71947;SDS011;63257;55.082;38.772;2024-03-25T07:14:52;3.42;;;1.70;;
71947;SDS011;63257;55.082;38.772;2024-03-25T07:17:18;3.75;;;2.00;;
71947;SDS011;63257;55.082;38.772;2024-03-25T07:19:44;3.90;;;2.00;;
71947;SDS011;63257;55.082;38.772;2024-03-25T07:22:10;4.03;;;2.00;;
71947;SDS011;63257;55.082;38.772;2024-03-25T07:24:36;4.43;;;1.90;;
71947;SDS011;63257;55.082;38.772;2024-03-25T07:27:02;3.37;;;1.70;;
71947;SDS011;63257;55.082;38.772;2024-03-25T07:29:28;4.15;;;1.95;;
71947;SDS011;63257;55.082;38.772;2024-03-25T07:31:54;4.65;;;2.15;;
71947;SDS011;63257;55.082;38.772;2024-03-25T07:34:20;4.33;;;2.10;;
71947;SDS011;63257;55.082;38.772;2024-03-25T07:36:46;3.60;;;1.88;;
71947;SDS011;63257;55.082;38.772;2024-03-25T07:39:14;4.00;;;2.07;;
71947;SDS011;63257;55.082;38.772;2024-03-25T07:41:40;3.97;;;2.08;;
71947;SDS011;63257;55.082;38.772;2024-03-25T07:44:06;3.67;;;1.95;;
71947;SDS011;63257;55.082;38.772;2024-03-25T07:46:31;4.37;;;2.23;;
71947;SDS011;63257;55.082;38.772;2024-03-25T07:48:57;6.18;;;2.60;;
71947;SDS011;63257;55.082;38.772;2024-03-25T07:51:24;4.38;;;2.22;;
71947;SDS011;63257;55.082;38.772;2024-03-25T07:53:50;4.82;;;2.35;;
71947;SDS011;63257;55.082;38.772;2024-03-25T07:56:15;4.30;;;2.10;;
71947;SDS011;63257;55.082;38.772;2024-03-25T07:58:41;4.10;;;2.20;;
71947;SDS011;63257;55.082;38.772;2024-03-25T08:01:07;3.88;;;2.10;;
71947;SDS011;63257;55.082;38.772;2024-03-25T08:03:33;4.03;;;1.93;;
71947;SDS011;63257;55.082;38.772;2024-03-25T08:05:59;3.88;;;1.95;;
71947;SDS011;63257;55.082;38.772;2024-03-25T08:08:25;4.05;;;2.10;;
71947;SDS011;63257;55.082;38.772;2024-03-25T08:10:51;5.00;;;2.00;;
71947;SDS011;63257;55.082;38.772;2024-03-25T08:13:21;4.20;;;2.00;;
71947;SDS011;63257;55.082;38.772;2024-03-25T08:15:47;4.00;;;2.20;;
71947;SDS011;63257;55.082;38.772;2024-03-25T08:18:13;4.03;;;2.00;;
71947;SDS011;63257;55.082;38.772;2024-03-25T08:20:39;4.53;;;2.40;;
71947;SDS011;63257;55.082;38.772;2024-03-25T08:23:05;4.72;;;2.30;;
71947;SDS011;63257;55.082;38.772;2024-03-25T08:25:32;3.90;;;1.90;;
71947;SDS011;63257;55.082;38.772;2024-03-25T08:27:58;3.45;;;1.75;;
71947;SDS011;63257;55.082;38.772;2024-03-25T08:30:24;4.35;;;2.10;;
71947;SDS011;63257;55.082;38.772;2024-03-25T08:32:50;4.10;;;1.83;;
71947;SDS011;63257;55.082;38.772;2024-03-25T08:35:17;3.80;;;2.30;;
71947;SDS011;63257;55.082;38.772;2024-03-25T08:37:43;3.70;;;2.25;;
71947;SDS011;63257;55.082;38.772;2024-03-25T08:40:09;4.40;;;2.30;;
71947;SDS011;63257;55.082;38.772;2024-03-25T08:42:35;4.68;;;2.30;;
71947;SDS011;63257;55.082;38.772;2024-03-25T08:45:01;5.07;;;2.80;;
71947;SDS011;63257;55.082;38.772;2024-03-25T08:47:30;6.43;;;3.10;;
71947;SDS011;63257;55.082;38.772;2024-03-25T08:49:56;5.25;;;2.65;;
71947;SDS011;63257;55.082;38.772;2024-03-25T08:52:21;5.35;;;2.50;;
71947;SDS011;63257;55.082;38.772;2024-03-25T08:54:47;5.30;;;2.50;;
71947;SDS011;63257;55.082;38.772;2024-03-25T08:57:14;4.78;;;2.50;;
71947;SDS011;63257;55.082;38.772;2024-03-25T08:59:40;5.63;;;2.90;;
71947;SDS011;63257;55.082;38.772;2024-03-25T09:02:06;4.70;;;2.90;;
71947;SDS011;63257;55.082;38.772;2024-03-25T09:04:33;4.85;;;3.08;;
71947;SDS011;63257;55.082;38.772;2024-03-25T09:07:00;4.55;;;2.60;;
71947;SDS011;63257;55.082;38.772;2024-03-25T09:09:26;6.07;;;3.30;;
71947;SDS011;63257;55.082;38.772;2024-03-25T09:12:10;5.88;;;3.05;;
71947;SDS011;63257;55.082;38.772;2024-03-25T09:14:37;4.82;;;2.90;;
71947;SDS011;63257;55.082;38.772;2024-03-25T09:17:04;4.95;;;2.60;;
71947;SDS011;63257;55.082;38.772;2024-03-25T09:19:30;5.30;;;3.10;;
71947;SDS011;63257;55.082;38.772;2024-03-25T09:21:56;5.28;;;3.38;;
71947;SDS011;63257;55.082;38.772;2024-03-25T09:24:22;6.03;;;3.10;;
71947;SDS011;63257;55.082;38.772;2024-03-25T09:26:51;6.43;;;3.60;;
71947;SDS011;63257;55.082;38.772;2024-03-25T09:29:17;6.53;;;3.30;;
71947;SDS011;63257;55.082;38.772;2024-03-25T09:31:43;5.38;;;3.50;;
71947;SDS011;63257;55.082;38.772;2024-03-25T09:34:09;6.93;;;4.10;;
71947;SDS011;63257;55.082;38.772;2024-03-25T09:36:35;6.60;;;3.57;;
71947;SDS011;63257;55.082;38.772;2024-03-25T09:39:02;5.85;;;3.70;;
71947;SDS011;63257;55.082;38.772;2024-03-25T09:41:30;5.53;;;3.53;;
71947;SDS011;63257;55.082;38.772;2024-03-25T09:44:00;5.72;;;3.63;;
71947;SDS011;63257;55.082;38.772;2024-03-25T09:46:26;6.03;;;3.40;;
71947;SDS011;63257;55.082;38.772;2024-03-25T09:48:52;5.40;;;3.40;;
71947;SDS011;63257;55.082;38.772;2024-03-25T09:51:19;6.32;;;3.70;;
71947;SDS011;63257;55.082;38.772;2024-03-25T09:53:45;6.50;;;3.70;;
71947;SDS011;63257;55.082;38.772;2024-03-25T09:56:14;6.40;;;3.55;;
71947;SDS011;63257;55.082;38.772;2024-03-25T09:58:42;7.38;;;4.07;;
71947;SDS011;63257;55.082;38.772;2024-03-25T10:01:09;6.13;;;4.03;;
71947;SDS011;63257;55.082;38.772;2024-03-25T10:03:36;6.32;;;3.90;;
71947;SDS011;63257;55.082;38.772;2024-03-25T10:06:01;5.93;;;3.50;;
71947;SDS011;63257;55.082;38.772;2024-03-25T10:08:28;6.20;;;3.60;;
71947;SDS011;63257;55.082;38.772;2024-03-25T10:10:57;5.90;;;3.72;;
71947;SDS011;63257;55.082;38.772;2024-03-25T10:13:23;6.00;;;3.80;;
71947;SDS011;63257;55.082;38.772;2024-03-25T10:15:49;6.00;;;4.20;;
71947;SDS011;63257;55.082;38.772;2024-03-25T10:18:16;7.00;;;4.22;;
71947;SDS011;63257;55.082;38.772;2024-03-25T10:20:52;6.47;;;4.10;;
71947;SDS011;63257;55.082;38.772;2024-03-25T10:23:20;8.50;;;4.83;;
71947;SDS011;63257;55.082;38.772;2024-03-25T10:25:51;7.82;;;4.50;;
71947;SDS011;63257;55.082;38.772;2024-03-25T10:28:19;6.78;;;4.20;;
71947;SDS011;63257;55.082;38.772;2024-03-25T10:30:44;7.43;;;4.78;;
71947;SDS011;63257;55.082;38.772;2024-03-25T10:33:11;6.65;;;4.32;;
71947;SDS011;63257;55.082;38.772;2024-03-25T10:35:39;6.43;;;4.28;;
71947;SDS011;63257;55.082;38.772;2024-03-25T10:38:07;7.18;;;4.25;;
71947;SDS011;63257;55.082;38.772;2024-03-25T10:40:37;6.87;;;3.90;;
71947;SDS011;63257;55.082;38.772;2024-03-25T10:45:33;9.60;;;4.80;;
71947;SDS011;63257;55.082;38.772;2024-03-25T10:48:14;7.57;;;4.33;;
71947;SDS011;63257;55.082;38.772;2024-03-25T10:50:43;7.78;;;4.45;;
71947;SDS011;63257;55.082;38.772;2024-03-25T10:53:12;8.15;;;4.57;;
71947;SDS011;63257;55.082;38.772;2024-03-25T10:55:40;6.53;;;4.38;;
71947;SDS011;63257;55.082;38.772;2024-03-25T10:58:07;6.30;;;4.30;;
71947;SDS011;63257;55.082;38.772;2024-03-25T11:00:34;8.55;;;4.40;;
71947;SDS011;63257;55.082;38.772;2024-03-25T11:03:01;7.97;;;4.60;;
71947;SDS011;63257;55.082;38.772;2024-03-25T11:05:28;8.80;;;4.50;;
71947;SDS011;63257;55.082;38.772;2024-03-25T11:07:54;8.55;;;4.60;;
71947;SDS011;63257;55.082;38.772;2024-03-25T11:10:28;8.70;;;4.93;;
71947;SDS011;63257;55.082;38.772;2024-03-25T11:12:55;7.60;;;4.70;;
71947;SDS011;63257;55.082;38.772;2024-03-25T11:15:20;8.20;;;5.30;;
71947;SDS011;63257;55.082;38.772;2024-03-25T11:17:50;10.87;;;5.17;;
71947;SDS011;63257;55.082;38.772;2024-03-25T11:20:16;8.52;;;5.68;;
71947;SDS011;63257;55.082;38.772;2024-03-25T11:22:49;8.27;;;4.63;;
71947;SDS011;63257;55.082;38.772;2024-03-25T11:25:16;8.55;;;5.15;;
71947;SDS011;63257;55.082;38.772;2024-03-25T11:27:43;7.55;;;4.80;;
71947;SDS011;63257;55.082;38.772;2024-03-25T11:30:13;9.52;;;4.88;;
71947;SDS011;63257;55.082;38.772;2024-03-25T11:32:52;8.57;;;5.03;;
71947;SDS011;63257;55.082;38.772;2024-03-25T11:35:19;6.67;;;4.33;;
71947;SDS011;63257;55.082;38.772;2024-03-25T11:37:46;8.20;;;4.82;;
71947;SDS011;63257;55.082;38.772;2024-03-25T11:40:12;7.78;;;5.10;;
71947;SDS011;63257;55.082;38.772;2024-03-25T11:42:40;8.95;;;5.20;;
71947;SDS011;63257;55.082;38.772;2024-03-25T11:45:18;7.75;;;5.25;;
71947;SDS011;63257;55.082;38.772;2024-03-25T11:47:45;8.48;;;5.30;;
71947;SDS011;63257;55.082;38.772;2024-03-25T11:50:13;9.07;;;5.50;;
71947;SDS011;63257;55.082;38.772;2024-03-25T11:52:40;7.60;;;4.80;;
71947;SDS011;63257;55.082;38.772;2024-03-25T11:55:06;8.07;;;5.00;;
71947;SDS011;63257;55.082;38.772;2024-03-25T11:57:38;8.88;;;4.80;;
71947;SDS011;63257;55.082;38.772;2024-03-25T12:00:04;8.05;;;5.10;;
71947;SDS011;63257;55.082;38.772;2024-03-25T12:02:44;6.97;;;4.53;;
71947;SDS011;63257;55.082;38.772;2024-03-25T12:05:13;7.70;;;4.93;;
71947;SDS011;63257;55.082;38.772;2024-03-25T12:07:39;7.47;;;4.53;;
71947;SDS011;63257;55.082;38.772;2024-03-25T12:10:05;7.90;;;4.87;;
71947;SDS011;63257;55.082;38.772;2024-03-25T12:12:50;8.52;;;5.05;;
71947;SDS011;63257;55.082;38.772;2024-03-25T12:15:20;10.20;;;5.40;;
71947;SDS011;63257;55.082;38.772;2024-03-25T12:17:47;9.73;;;5.83;;
71947;SDS011;63257;55.082;38.772;2024-03-25T12:20:17;9.02;;;5.30;;
71947;SDS011;63257;55.082;38.772;2024-03-25T12:22:43;8.63;;;5.50;;
71947;SDS011;63257;55.082;38.772;2024-03-25T12:25:10;9.73;;;5.87;;
71947;SDS011;63257;55.082;38.772;2024-03-25T12:27:37;8.40;;;5.13;;
71947;SDS011;63257;55.082;38.772;2024-03-25T12:30:04;9.70;;;5.60;;
71947;SDS011;63257;55.082;38.772;2024-03-25T12:35:13;9.37;;;5.50;;
71947;SDS011;63257;55.082;38.772;2024-03-25T12:37:46;18.65;;;5.97;;
71947;SDS011;63257;55.082;38.772;2024-03-25T12:40:13;10.15;;;5.28;;
71947;SDS011;63257;55.082;38.772;2024-03-25T12:42:53;9.23;;;6.07;;
71947;SDS011;63257;55.082;38.772;2024-03-25T12:45:22;10.88;;;5.38;;
71947;SDS011;63257;55.082;38.772;2024-03-25T12:47:51;9.10;;;5.60;;
71947;SDS011;63257;55.082;38.772;2024-03-25T12:50:17;8.10;;;5.32;;
71947;SDS011;63257;55.082;38.772;2024-03-25T12:52:44;8.73;;;5.80;;
71947;SDS011;63257;55.082;38.772;2024-03-25T12:55:10;8.63;;;5.70;;
71947;SDS011;63257;55.082;38.772;2024-03-25T12:57:36;8.70;;;5.72;;
71947;SDS011;63257;55.082;38.772;2024-03-25T13:00:02;9.53;;;5.73;;
71947;SDS011;63257;55.082;38.772;2024-03-25T13:02:30;9.10;;;5.60;;
71947;SDS011;63257;55.082;38.772;2024-03-25T13:04:57;9.52;;;5.95;;
71947;SDS011;63257;55.082;38.772;2024-03-25T13:07:23;9.27;;;5.60;;
71947;SDS011;63257;55.082;38.772;2024-03-25T13:09:49;9.90;;;5.75;;
71947;SDS011;63257;55.082;38.772;2024-03-25T13:12:15;11.00;;;5.80;;
71947;SDS011;63257;55.082;38.772;2024-03-25T13:14:41;9.40;;;5.07;;
71947;SDS011;63257;55.082;38.772;2024-03-25T13:17:06;8.70;;;5.22;;
71947;SDS011;63257;55.082;38.772;2024-03-25T13:19:32;10.23;;;5.50;;
71947;SDS011;63257;55.082;38.772;2024-03-25T13:21:58;10.73;;;6.18;;
71947;SDS011;63257;55.082;38.772;2024-03-25T13:24:24;9.63;;;5.43;;
71947;SDS011;63257;55.082;38.772;2024-03-25T13:26:49;10.13;;;5.55;;
71947;SDS011;63257;55.082;38.772;2024-03-25T13:29:15;9.25;;;5.40;;
71947;SDS011;63257;55.082;38.772;2024-03-25T13:31:42;9.95;;;5.97;;
71947;SDS011;63257;55.082;38.772;2024-03-25T13:34:07;9.77;;;5.73;;
71947;SDS011;63257;55.082;38.772;2024-03-25T13:36:33;10.88;;;6.82;;
71947;SDS011;63257;55.082;38.772;2024-03-25T13:38:59;11.60;;;6.90;;
71947;SDS011;63257;55.082;38.772;2024-03-25T13:41:25;10.15;;;6.30;;
71947;SDS011;63257;55.082;38.772;2024-03-25T13:43:51;9.50;;;6.10;;
71947;SDS011;63257;55.082;38.772;2024-03-25T13:46:17;10.90;;;6.73;;
71947;SDS011;63257;55.082;38.772;2024-03-25T13:48:43;10.88;;;6.50;;
71947;SDS011;63257;55.082;38.772;2024-03-25T13:51:08;11.10;;;6.43;;
71947;SDS011;63257;55.082;38.772;2024-03-25T13:53:34;45.65;;;26.77;;
71947;SDS011;63257;55.082;38.772;2024-03-25T13:56:00;28.88;;;16.60;;
71947;SDS011;63257;55.082;38.772;2024-03-25T13:58:26;57.97;;;28.85;;
71947;SDS011;63257;55.082;38.772;2024-03-25T14:00:52;139.77;;;80.18;;
71947;SDS011;63257;55.082;38.772;2024-03-25T14:03:18;39.97;;;21.73;;
71947;SDS011;63257;55.082;38.772;2024-03-25T14:05:45;11.20;;;6.55;;
71947;SDS011;63257;55.082;38.772;2024-03-25T14:08:12;18.27;;;9.73;;
71947;SDS011;63257;55.082;38.772;2024-03-25T14:10:37;15.20;;;7.30;;
71947;SDS011;63257;55.082;38.772;2024-03-25T14:13:08;12.13;;;6.72;;
71947;SDS011;63257;55.082;38.772;2024-03-25T14:15:34;9.18;;;5.78;;
71947;SDS011;63257;55.082;38.772;2024-03-25T14:18:00;9.83;;;6.50;;
71947;SDS011;63257;55.082;38.772;2024-03-25T14:20:26;11.93;;;6.30;;
71947;SDS011;63257;55.082;38.772;2024-03-25T14:22:51;9.77;;;5.90;;
71947;SDS011;63257;55.082;38.772;2024-03-25T14:25:17;10.60;;;6.03;;
71947;SDS011;63257;55.082;38.772;2024-03-25T14:27:45;12.52;;;6.78;;
71947;SDS011;63257;55.082;38.772;2024-03-25T14:30:11;9.40;;;5.90;;
71947;SDS011;63257;55.082;38.772;2024-03-25T14:32:39;10.90;;;6.53;;